Terminal Aerodrome Forecast
Issued by NWS Wilmington, NC

Home | Current Version | Previous Version | Text Only | Print | Product List | Glossary On
Versions: 1 2 3 4 5 6 7 8 9 10 11 12 13
399
FTUS42 KILM 041136
TAFILM
TAF
KILM 041136Z 0412/0512 03008KT P6SM VCSH OVC080
     FM041800 05009KT P6SM -RA OVC060
     FM050000 08007KT 4SM -RA SCT003 BKN020 OVC040
     FM050500 12007KT 3SM -RA SCT003 BKN007
     FM050900 22010KT 4SM -RA BR BKN003 OVC007=

USA.gov is the U.S. government's official web portal to all federal, state and local government web resources and services.